sensor_id;sensor_type;location;lat;lon;timestamp;pressure;altitude;pressure_sealevel;temperature;humidity
43488;BME280;29078;41.932;25.554;2022-11-18T00:01:28;98479.31;;;10.78;76.52
43488;BME280;29078;41.932;25.554;2022-11-18T00:03:54;98485.00;;;10.82;76.26
43488;BME280;29078;41.932;25.554;2022-11-18T00:06:22;98411.34;;;10.41;76.10
43488;BME280;29078;41.932;25.554;2022-11-18T00:08:48;98464.53;;;10.58;76.48
43488;BME280;29078;41.932;25.554;2022-11-18T00:11:16;98534.56;;;11.00;76.07
43488;BME280;29078;41.932;25.554;2022-11-18T00:14:01;98482.78;;;10.79;76.30
43488;BME280;29078;41.932;25.554;2022-11-18T00:19:14;98522.34;;;11.05;76.45
43488;BME280;29078;41.932;25.554;2022-11-18T00:21:39;98538.81;;;11.01;76.91
43488;BME280;29078;41.932;25.554;2022-11-18T00:24:05;98475.69;;;10.46;76.81
43488;BME280;29078;41.932;25.554;2022-11-18T00:26:30;98394.47;;;10.15;76.83
43488;BME280;29078;41.932;25.554;2022-11-18T00:28:56;98481.16;;;10.65;76.52
43488;BME280;29078;41.932;25.554;2022-11-18T00:31:21;98520.34;;;10.88;76.98
43488;BME280;29078;41.932;25.554;2022-11-18T00:33:46;98463.50;;;10.59;76.87
43488;BME280;29078;41.932;25.554;2022-11-18T00:36:12;98546.53;;;11.02;76.50
43488;BME280;29078;41.932;25.554;2022-11-18T00:38:38;98460.44;;;10.29;76.28
43488;BME280;29078;41.932;25.554;2022-11-18T00:41:06;98543.91;;;11.02;76.92
43488;BME280;29078;41.932;25.554;2022-11-18T00:43:33;98509.19;;;10.79;76.51
43488;BME280;29078;41.932;25.554;2022-11-18T00:45:59;98412.56;;;10.25;76.07
43488;BME280;29078;41.932;25.554;2022-11-18T00:48:25;98531.91;;;11.00;76.62
43488;BME280;29078;41.932;25.554;2022-11-18T00:50:53;98501.47;;;10.64;76.44
43488;BME280;29078;41.932;25.554;2022-11-18T00:53:21;98449.28;;;10.40;76.47
43488;BME280;29078;41.932;25.554;2022-11-18T00:55:46;98501.88;;;10.68;76.12
43488;BME280;29078;41.932;25.554;2022-11-18T00:58:12;98499.66;;;10.71;76.14
43488;BME280;29078;41.932;25.554;2022-11-18T01:00:41;98491.31;;;10.68;75.99
43488;BME280;29078;41.932;25.554;2022-11-18T01:03:08;98475.50;;;10.55;75.95
43488;BME280;29078;41.932;25.554;2022-11-18T01:05:33;98482.59;;;10.61;76.16
43488;BME280;29078;41.932;25.554;2022-11-18T01:07:59;98468.19;;;10.43;76.41
43488;BME280;29078;41.932;25.554;2022-11-18T01:10:24;98549.00;;;10.77;76.48
43488;BME280;29078;41.932;25.554;2022-11-18T01:12:50;98457.00;;;10.28;76.72
43488;BME280;29078;41.932;25.554;2022-11-18T01:15:38;98494.97;;;10.54;76.46
43488;BME280;29078;41.932;25.554;2022-11-18T01:18:04;98520.16;;;10.56;76.64
43488;BME280;29078;41.932;25.554;2022-11-18T01:20:31;98532.34;;;10.77;76.52
43488;BME280;29078;41.932;25.554;2022-11-18T01:22:57;98484.22;;;10.42;75.91
43488;BME280;29078;41.932;25.554;2022-11-18T01:25:22;98445.00;;;10.12;75.95
43488;BME280;29078;41.932;25.554;2022-11-18T01:27:47;98543.91;;;10.69;76.42
43488;BME280;29078;41.932;25.554;2022-11-18T01:30:13;98516.91;;;10.47;76.06
43488;BME280;29078;41.932;25.554;2022-11-18T01:32:41;98448.81;;;9.90;75.99
43488;BME280;29078;41.932;25.554;2022-11-18T01:35:07;98443.13;;;9.93;76.01
43488;BME280;29078;41.932;25.554;2022-11-18T01:37:32;98479.53;;;10.24;76.00
43488;BME280;29078;41.932;25.554;2022-11-18T01:39:58;98409.81;;;9.66;75.88
43488;BME280;29078;41.932;25.554;2022-11-18T01:42:23;98472.34;;;9.98;75.60
43488;BME280;29078;41.932;25.554;2022-11-18T01:45:20;98541.28;;;10.49;75.64
43488;BME280;29078;41.932;25.554;2022-11-18T01:47:53;98551.63;;;10.51;75.71
43488;BME280;29078;41.932;25.554;2022-11-18T01:50:20;98552.44;;;10.45;75.75
43488;BME280;29078;41.932;25.554;2022-11-18T01:52:46;98506.25;;;10.14;75.50
43488;BME280;29078;41.932;25.554;2022-11-18T01:55:17;98368.59;;;9.32;75.06
43488;BME280;29078;41.932;25.554;2022-11-18T01:57:46;98517.41;;;10.16;75.80
43488;BME280;29078;41.932;25.554;2022-11-18T02:00:12;98456.94;;;9.88;75.67
43488;BME280;29078;41.932;25.554;2022-11-18T02:02:38;98386.66;;;9.48;75.52
43488;BME280;29078;41.932;25.554;2022-11-18T02:05:07;98453.25;;;9.83;75.25
43488;BME280;29078;41.932;25.554;2022-11-18T02:07:35;98546.13;;;10.46;75.80
43488;BME280;29078;41.932;25.554;2022-11-18T02:10:04;98483.50;;;9.94;75.44
43488;BME280;29078;41.932;25.554;2022-11-18T02:12:30;98514.19;;;10.14;75.01
43488;BME280;29078;41.932;25.554;2022-11-18T02:14:56;98536.94;;;10.29;75.51
43488;BME280;29078;41.932;25.554;2022-11-18T02:22:29;98536.16;;;10.35;75.27
43488;BME280;29078;41.932;25.554;2022-11-18T02:30:58;98545.47;;;10.31;75.10
43488;BME280;29078;41.932;25.554;2022-11-18T02:33:54;98547.09;;;10.25;75.02
43488;BME280;29078;41.932;25.554;2022-11-18T02:36:27;98485.28;;;9.80;75.30
43488;BME280;29078;41.932;25.554;2022-11-18T02:39:04;98473.69;;;9.68;74.85
43488;BME280;29078;41.932;25.554;2022-11-18T02:41:33;98512.31;;;9.95;75.44
43488;BME280;29078;41.932;25.554;2022-11-18T02:44:11;98554.19;;;10.25;74.75
43488;BME280;29078;41.932;25.554;2022-11-18T02:46:38;98554.19;;;10.25;75.25
43488;BME280;29078;41.932;25.554;2022-11-18T02:49:19;98509.44;;;9.83;74.99
43488;BME280;29078;41.932;25.554;2022-11-18T02:51:47;98310.56;;;8.57;74.62
43488;BME280;29078;41.932;25.554;2022-11-18T02:54:14;98510.25;;;9.84;75.15
43488;BME280;29078;41.932;25.554;2022-11-18T02:56:41;98342.28;;;8.90;74.57
43488;BME280;29078;41.932;25.554;2022-11-18T02:59:07;98486.31;;;9.79;74.76
43488;BME280;29078;41.932;25.554;2022-11-18T03:01:34;98563.13;;;10.24;74.83
43488;BME280;29078;41.932;25.554;2022-11-18T03:04:00;98516.94;;;9.86;74.91
43488;BME280;29078;41.932;25.554;2022-11-18T03:06:44;98533.03;;;10.05;75.03
43488;BME280;29078;41.932;25.554;2022-11-18T03:09:22;98505.16;;;9.76;74.82
43488;BME280;29078;41.932;25.554;2022-11-18T03:20:22;98547.00;;;9.99;75.07
43488;BME280;29078;41.932;25.554;2022-11-18T03:25:57;98553.31;;;10.04;74.61
43488;BME280;29078;41.932;25.554;2022-11-18T03:28:37;98588.81;;;10.02;75.09
43488;BME280;29078;41.932;25.554;2022-11-18T03:31:11;98552.06;;;10.00;74.49
43488;BME280;29078;41.932;25.554;2022-11-18T03:33:42;98520.94;;;9.69;74.56
43488;BME280;29078;41.932;25.554;2022-11-18T03:36:11;98556.13;;;9.96;75.17
43488;BME280;29078;41.932;25.554;2022-11-18T03:38:43;98565.84;;;9.96;75.02
43488;BME280;29078;41.932;25.554;2022-11-18T03:41:13;98561.19;;;9.91;75.10
43488;BME280;29078;41.932;25.554;2022-11-18T03:43:51;98415.88;;;8.99;74.82
43488;BME280;29078;41.932;25.554;2022-11-18T03:46:30;98513.25;;;9.68;74.46
43488;BME280;29078;41.932;25.554;2022-11-18T03:49:00;98480.25;;;9.37;74.44
43488;BME280;29078;41.932;25.554;2022-11-18T03:51:32;98576.19;;;9.97;74.01
43488;BME280;29078;41.932;25.554;2022-11-18T03:54:19;98556.31;;;9.95;74.33
43488;BME280;29078;41.932;25.554;2022-11-18T03:56:52;98552.25;;;9.92;74.90
43488;BME280;29078;41.932;25.554;2022-11-18T03:59:44;98470.31;;;9.33;74.96
43488;BME280;29078;41.932;25.554;2022-11-18T04:02:20;98483.75;;;9.51;74.20
43488;BME280;29078;41.932;25.554;2022-11-18T04:04:48;98479.06;;;9.40;74.37
43488;BME280;29078;41.932;25.554;2022-11-18T04:07:33;98560.38;;;9.97;74.31
43488;BME280;29078;41.932;25.554;2022-11-18T04:10:10;98555.31;;;9.96;74.21
43488;BME280;29078;41.932;25.554;2022-11-18T04:13:00;98540.88;;;9.85;74.34
43488;BME280;29078;41.932;25.554;2022-11-18T04:15:29;98489.38;;;9.41;74.22
43488;BME280;29078;41.932;25.554;2022-11-18T04:17:55;98554.28;;;9.97;74.52
43488;BME280;29078;41.932;25.554;2022-11-18T04:20:21;98366.72;;;8.71;74.14
43488;BME280;29078;41.932;25.554;2022-11-18T04:22:47;98473.94;;;9.32;74.29
43488;BME280;29078;41.932;25.554;2022-11-18T04:25:12;98456.66;;;9.16;74.37
43488;BME280;29078;41.932;25.554;2022-11-18T04:27:37;98473.84;;;9.12;74.25
43488;BME280;29078;41.932;25.554;2022-11-18T04:30:05;98564.31;;;9.67;74.25
43488;BME280;29078;41.932;25.554;2022-11-18T04:32:30;98505.41;;;9.40;74.25
43488;BME280;29078;41.932;25.554;2022-11-18T04:34:56;98558.69;;;9.76;74.29
43488;BME280;29078;41.932;25.554;2022-11-18T04:37:21;98532.41;;;9.55;73.89
43488;BME280;29078;41.932;25.554;2022-11-18T04:39:47;98507.59;;;9.36;74.35
43488;BME280;29078;41.932;25.554;2022-11-18T04:42:12;98538.47;;;9.49;74.30
43488;BME280;29078;41.932;25.554;2022-11-18T04:44:37;98422.44;;;8.81;74.85
43488;BME280;29078;41.932;25.554;2022-11-18T04:47:04;98571.44;;;9.73;74.16
43488;BME280;29078;41.932;25.554;2022-11-18T04:49:31;98565.75;;;9.69;74.93
43488;BME280;29078;41.932;25.554;2022-11-18T04:51:57;98525.03;;;9.37;74.93
43488;BME280;29078;41.932;25.554;2022-11-18T04:54:23;98573.56;;;9.56;74.76
43488;BME280;29078;41.932;25.554;2022-11-18T04:56:49;98568.34;;;9.63;75.00
43488;BME280;29078;41.932;25.554;2022-11-18T04:59:20;98572.78;;;9.62;75.01
43488;BME280;29078;41.932;25.554;2022-11-18T05:01:47;98519.69;;;9.24;74.96
43488;BME280;29078;41.932;25.554;2022-11-18T05:04:14;98324.66;;;8.15;74.01
43488;BME280;29078;41.932;25.554;2022-11-18T05:06:40;98514.69;;;9.36;74.37
43488;BME280;29078;41.932;25.554;2022-11-18T05:09:05;98521.16;;;9.33;74.42
43488;BME280;29078;41.932;25.554;2022-11-18T05:11:31;98539.69;;;9.46;74.31
43488;BME280;29078;41.932;25.554;2022-11-18T05:14:15;98513.84;;;9.29;74.26
43488;BME280;29078;41.932;25.554;2022-11-18T05:16:40;98505.53;;;9.25;74.60
43488;BME280;29078;41.932;25.554;2022-11-18T05:19:06;98592.31;;;9.68;75.04
43488;BME280;29078;41.932;25.554;2022-11-18T05:21:32;98559.91;;;9.39;75.30
43488;BME280;29078;41.932;25.554;2022-11-18T05:23:58;98590.41;;;9.62;75.44
43488;BME280;29078;41.932;25.554;2022-11-18T05:26:24;98587.78;;;9.62;75.45
43488;BME280;29078;41.932;25.554;2022-11-18T05:28:50;98586.72;;;9.49;75.75
43488;BME280;29078;41.932;25.554;2022-11-18T05:31:16;98592.84;;;9.56;75.77
43488;BME280;29078;41.932;25.554;2022-11-18T05:33:43;98599.09;;;9.55;76.13
43488;BME280;29078;41.932;25.554;2022-11-18T05:36:10;98597.09;;;9.57;75.72
43488;BME280;29078;41.932;25.554;2022-11-18T05:38:36;98598.31;;;9.62;75.96
43488;BME280;29078;41.932;25.554;2022-11-18T05:41:02;98545.66;;;9.27;75.61
43488;BME280;29078;41.932;25.554;2022-11-18T05:43:28;98569.09;;;9.50;75.94
43488;BME280;29078;41.932;25.554;2022-11-18T05:45:56;98549.81;;;9.49;75.76
43488;BME280;29078;41.932;25.554;2022-11-18T05:48:21;98581.47;;;9.56;75.65
43488;BME280;29078;41.932;25.554;2022-11-18T05:50:49;98520.47;;;9.18;75.69
43488;BME280;29078;41.932;25.554;2022-11-18T05:53:17;98570.53;;;9.59;75.73
43488;BME280;29078;41.932;25.554;2022-11-18T05:58:30;98487.38;;;9.02;75.87
43488;BME280;29078;41.932;25.554;2022-11-18T06:00:59;98566.66;;;9.55;75.78
43488;BME280;29078;41.932;25.554;2022-11-18T06:03:28;98518.91;;;9.30;76.10
43488;BME280;29078;41.932;25.554;2022-11-18T06:05:57;98443.44;;;8.75;76.06
43488;BME280;29078;41.932;25.554;2022-11-18T06:08:32;98426.81;;;8.68;75.82
43488;BME280;29078;41.932;25.554;2022-11-18T06:10:59;98535.56;;;9.37;76.15
43488;BME280;29078;41.932;25.554;2022-11-18T06:13:30;98498.41;;;9.19;75.88
43488;BME280;29078;41.932;25.554;2022-11-18T06:15:59;98528.94;;;9.48;75.78
43488;BME280;29078;41.932;25.554;2022-11-18T06:18:31;98479.06;;;8.99;75.59
43488;BME280;29078;41.932;25.554;2022-11-18T06:20:59;98572.69;;;9.77;75.31
43488;BME280;29078;41.932;25.554;2022-11-18T06:23:27;98419.44;;;8.91;75.03
43488;BME280;29078;41.932;25.554;2022-11-18T06:25:53;98584.91;;;9.91;75.45
43488;BME280;29078;41.932;25.554;2022-11-18T06:28:20;98604.81;;;10.00;75.08
43488;BME280;29078;41.932;25.554;2022-11-18T06:30:46;98364.34;;;8.48;75.08
43488;BME280;29078;41.932;25.554;2022-11-18T06:33:12;98556.66;;;9.72;75.03
43488;BME280;29078;41.932;25.554;2022-11-18T06:35:37;98569.25;;;9.83;75.41
43488;BME280;29078;41.932;25.554;2022-11-18T06:38:03;98559.91;;;9.74;75.19
43488;BME280;29078;41.932;25.554;2022-11-18T06:40:28;98495.44;;;9.35;75.24
43488;BME280;29078;41.932;25.554;2022-11-18T06:42:54;98602.56;;;9.97;75.08
43488;BME280;29078;41.932;25.554;2022-11-18T06:45:38;98548.94;;;9.70;74.97
43488;BME280;29078;41.932;25.554;2022-11-18T06:48:03;98607.25;;;10.02;75.13
43488;BME280;29078;41.932;25.554;2022-11-18T06:50:29;98594.88;;;10.02;75.25
43488;BME280;29078;41.932;25.554;2022-11-18T06:52:55;98594.66;;;9.97;75.25
43488;BME280;29078;41.932;25.554;2022-11-18T06:55:21;98466.81;;;9.19;74.77
43488;BME280;29078;41.932;25.554;2022-11-18T06:57:46;98535.28;;;9.60;75.00
43488;BME280;29078;41.932;25.554;2022-11-18T07:00:12;98594.28;;;10.07;74.83
43488;BME280;29078;41.932;25.554;2022-11-18T07:02:38;98558.09;;;9.81;75.08
43488;BME280;29078;41.932;25.554;2022-11-18T07:05:04;98543.69;;;9.77;75.07
43488;BME280;29078;41.932;25.554;2022-11-18T07:07:29;98549.59;;;9.85;74.92
43488;BME280;29078;41.932;25.554;2022-11-18T07:09:55;98631.47;;;10.18;75.03
43488;BME280;29078;41.932;25.554;2022-11-18T07:12:20;98551.22;;;9.86;74.82
43488;BME280;29078;41.932;25.554;2022-11-18T07:14:46;98588.81;;;10.08;74.76
43488;BME280;29078;41.932;25.554;2022-11-18T07:17:11;98567.50;;;10.03;75.16
43488;BME280;29078;41.932;25.554;2022-11-18T07:19:38;98560.38;;;9.97;75.15
43488;BME280;29078;41.932;25.554;2022-11-18T07:22:03;98563.03;;;10.04;75.33
43488;BME280;29078;41.932;25.554;2022-11-18T07:24:29;98560.38;;;9.97;75.37
43488;BME280;29078;41.932;25.554;2022-11-18T07:26:54;98547.41;;;9.96;75.56
43488;BME280;29078;41.932;25.554;2022-11-18T07:29:20;98587.69;;;10.24;75.15
43488;BME280;29078;41.932;25.554;2022-11-18T07:31:45;98558.19;;;10.14;74.73
43488;BME280;29078;41.932;25.554;2022-11-18T07:34:11;98596.69;;;10.43;75.36
43488;BME280;29078;41.932;25.554;2022-11-18T07:36:37;98492.38;;;9.79;75.20
43488;BME280;29078;41.932;25.554;2022-11-18T07:39:04;98589.78;;;10.48;75.12
43488;BME280;29078;41.932;25.554;2022-11-18T07:41:30;98525.75;;;10.13;75.10
43488;BME280;29078;41.932;25.554;2022-11-18T07:43:57;98495.88;;;10.00;74.81
43488;BME280;29078;41.932;25.554;2022-11-18T07:46:34;98511.34;;;10.16;75.32
43488;BME280;29078;41.932;25.554;2022-11-18T07:49:02;98578.03;;;10.64;74.73
43488;BME280;29078;41.932;25.554;2022-11-18T07:51:31;98585.94;;;10.64;75.11
43488;BME280;29078;41.932;25.554;2022-11-18T07:53:58;98527.03;;;10.37;75.45
43488;BME280;29078;41.932;25.554;2022-11-18T07:56:24;98578.63;;;10.66;75.16
43488;BME280;29078;41.932;25.554;2022-11-18T07:58:53;98577.44;;;10.75;75.09
43488;BME280;29078;41.932;25.554;2022-11-18T08:04:40;98570.13;;;10.71;75.15
43488;BME280;29078;41.932;25.554;2022-11-18T08:07:08;98569.72;;;10.80;75.61
43488;BME280;29078;41.932;25.554;2022-11-18T08:09:34;98437.19;;;9.65;75.65
43488;BME280;29078;41.932;25.554;2022-11-18T08:11:59;98463.44;;;10.19;75.17
43488;BME280;29078;41.932;25.554;2022-11-18T08:14:26;98527.06;;;10.70;75.24
43488;BME280;29078;41.932;25.554;2022-11-18T08:16:54;98434.28;;;10.21;75.42
43488;BME280;29078;41.932;25.554;2022-11-18T08:19:19;98523.00;;;10.74;75.41
43488;BME280;29078;41.932;25.554;2022-11-18T08:21:45;98435.28;;;10.26;75.86
43488;BME280;29078;41.932;25.554;2022-11-18T08:24:10;98342.28;;;9.58;75.57
43488;BME280;29078;41.932;25.554;2022-11-18T08:26:36;98582.91;;;11.13;75.60
43488;BME280;29078;41.932;25.554;2022-11-18T08:29:01;98567.47;;;11.17;76.01
43488;BME280;29078;41.932;25.554;2022-11-18T08:31:28;98453.78;;;10.46;75.44
43488;BME280;29078;41.932;25.554;2022-11-18T08:33:59;98565.63;;;11.24;76.06
43488;BME280;29078;41.932;25.554;2022-11-18T08:36:27;98562.38;;;11.29;75.76
43488;BME280;29078;41.932;25.554;2022-11-18T08:38:55;98481.56;;;10.75;75.73
43488;BME280;29078;41.932;25.554;2022-11-18T08:43:51;98476.47;;;10.87;75.88
43488;BME280;29078;41.932;25.554;2022-11-18T08:46:17;98521.53;;;11.18;75.51
43488;BME280;29078;41.932;25.554;2022-11-18T08:48:42;98576.75;;;11.53;76.02
43488;BME280;29078;41.932;25.554;2022-11-18T08:51:10;98568.59;;;11.61;76.29
43488;BME280;29078;41.932;25.554;2022-11-18T08:53:36;98444.16;;;10.91;76.18
43488;BME280;29078;41.932;25.554;2022-11-18T08:56:01;98468.91;;;11.17;76.03
43488;BME280;29078;41.932;25.554;2022-11-18T08:58:27;98575.88;;;11.78;75.61
43488;BME280;29078;41.932;25.554;2022-11-18T09:00:53;98459.38;;;11.16;75.34
43488;BME280;29078;41.932;25.554;2022-11-18T09:03:18;98560.81;;;11.92;75.57
43488;BME280;29078;41.932;25.554;2022-11-18T09:05:44;98506.56;;;11.57;75.39
43488;BME280;29078;41.932;25.554;2022-11-18T09:08:09;98560.13;;;12.03;75.59
43488;BME280;29078;41.932;25.554;2022-11-18T09:10:36;98481.38;;;11.54;74.92
43488;BME280;29078;41.932;25.554;2022-11-18T09:13:01;98323.97;;;10.75;75.00
43488;BME280;29078;41.932;25.554;2022-11-18T09:15:27;98542.06;;;11.87;75.05
43488;BME280;29078;41.932;25.554;2022-11-18T09:17:55;98544.97;;;12.24;75.21
43488;BME280;29078;41.932;25.554;2022-11-18T09:20:20;98453.44;;;11.71;75.17
43488;BME280;29078;41.932;25.554;2022-11-18T09:22:46;98434.97;;;11.65;75.84
43488;BME280;29078;41.932;25.554;2022-11-18T09:25:11;98457.69;;;11.79;75.59
43488;BME280;29078;41.932;25.554;2022-11-18T09:27:37;98282.97;;;10.73;75.18
43488;BME280;29078;41.932;25.554;2022-11-18T09:30:03;98514.09;;;12.11;75.62
43488;BME280;29078;41.932;25.554;2022-11-18T09:32:28;98534.06;;;12.38;75.44
43488;BME280;29078;41.932;25.554;2022-11-18T09:34:54;98443.22;;;11.82;75.27
43488;BME280;29078;41.932;25.554;2022-11-18T09:37:19;98418.41;;;11.76;75.62
43488;BME280;29078;41.932;25.554;2022-11-18T09:39:45;98485.72;;;12.25;75.85
43488;BME280;29078;41.932;25.554;2022-11-18T09:49:55;98481.53;;;12.11;75.66
43488;BME280;29078;41.932;25.554;2022-11-18T09:52:31;98457.50;;;12.12;75.91
43488;BME280;29078;41.932;25.554;2022-11-18T09:55:00;98505.47;;;12.22;75.71
43488;BME280;29078;41.932;25.554;2022-11-18T09:57:37;98475.94;;;12.25;75.75
43488;BME280;29078;41.932;25.554;2022-11-18T10:00:21;98510.53;;;12.55;75.77
43488;BME280;29078;41.932;25.554;2022-11-18T10:03:12;98504.03;;;12.51;76.02
43488;BME280;29078;41.932;25.554;2022-11-18T10:08:49;98514.63;;;12.51;76.63
43488;BME280;29078;41.932;25.554;2022-11-18T10:11:23;98511.81;;;12.46;76.13
43488;BME280;29078;41.932;25.554;2022-11-18T10:24:51;98465.63;;;12.42;76.80
43488;BME280;29078;41.932;25.554;2022-11-18T10:27:17;98471.47;;;12.51;76.67
43488;BME280;29078;41.932;25.554;2022-11-18T10:29:45;98451.41;;;12.36;77.08
43488;BME280;29078;41.932;25.554;2022-11-18T10:32:16;98470.06;;;12.48;76.92
43488;BME280;29078;41.932;25.554;2022-11-18T10:34:53;98425.81;;;12.30;76.67
43488;BME280;29078;41.932;25.554;2022-11-18T10:37:22;98464.44;;;12.63;76.79
43488;BME280;29078;41.932;25.554;2022-11-18T10:39:50;98412.53;;;12.37;76.78
43488;BME280;29078;41.932;25.554;2022-11-18T10:42:27;98342.16;;;12.04;76.51
43488;BME280;29078;41.932;25.554;2022-11-18T10:44:54;98448.66;;;12.75;76.67
43488;BME280;29078;41.932;25.554;2022-11-18T10:47:30;98410.66;;;12.62;76.93
43488;BME280;29078;41.932;25.554;2022-11-18T10:50:01;98426.81;;;12.79;76.78
43488;BME280;29078;41.932;25.554;2022-11-18T10:52:52;98407.97;;;12.69;76.70
43488;BME280;29078;41.932;25.554;2022-11-18T10:55:20;98388.72;;;12.55;76.72
43488;BME280;29078;41.932;25.554;2022-11-18T10:57:49;98374.22;;;12.39;76.97
43488;BME280;29078;41.932;25.554;2022-11-18T11:00:43;98425.22;;;12.96;76.69
43488;BME280;29078;41.932;25.554;2022-11-18T11:05:44;98390.53;;;12.80;76.87
43488;BME280;29078;41.932;25.554;2022-11-18T11:08:23;98405.25;;;12.94;77.09
43488;BME280;29078;41.932;25.554;2022-11-18T11:10:57;98328.13;;;12.47;77.14
43488;BME280;29078;41.932;25.554;2022-11-18T11:13:26;98364.03;;;12.61;77.22
43488;BME280;29078;41.932;25.554;2022-11-18T11:15:54;98402.91;;;13.04;77.21
43488;BME280;29078;41.932;25.554;2022-11-18T11:18:23;98373.03;;;12.97;77.40
43488;BME280;29078;41.932;25.554;2022-11-18T11:21:20;98349.63;;;12.94;77.10
43488;BME280;29078;41.932;25.554;2022-11-18T11:23:49;98268.84;;;12.48;76.90
43488;BME280;29078;41.932;25.554;2022-11-18T11:26:45;98329.53;;;12.86;76.73
43488;BME280;29078;41.932;25.554;2022-11-18T11:29:33;98380.16;;;13.15;76.82
43488;BME280;29078;41.932;25.554;2022-11-18T11:32:14;98321.91;;;12.78;76.76
43488;BME280;29078;41.932;25.554;2022-11-18T11:55:27;98363.38;;;13.21;77.81
43488;BME280;29078;41.932;25.554;2022-11-18T11:58:16;98364.34;;;13.26;77.59
43488;BME280;29078;41.932;25.554;2022-11-18T12:00:48;98333.25;;;13.15;77.80
43488;BME280;29078;41.932;25.554;2022-11-18T12:06:08;98272.06;;;12.87;77.82
43488;BME280;29078;41.932;25.554;2022-11-18T12:08:34;98250.22;;;12.91;77.92
43488;BME280;29078;41.932;25.554;2022-11-18T12:19:07;98276.38;;;13.18;77.82
43488;BME280;29078;41.932;25.554;2022-11-18T12:24:29;98327.13;;;13.63;78.00
43488;BME280;29078;41.932;25.554;2022-11-18T12:27:00;98321.16;;;13.67;78.14
43488;BME280;29078;41.932;25.554;2022-11-18T12:29:56;98282.94;;;13.45;78.17
43488;BME280;29078;41.932;25.554;2022-11-18T12:37:42;98321.28;;;13.73;78.39
43488;BME280;29078;41.932;25.554;2022-11-18T12:40:29;98235.53;;;13.07;78.26
43488;BME280;29078;41.932;25.554;2022-11-18T12:42:54;98293.91;;;13.60;78.62
43488;BME280;29078;41.932;25.554;2022-11-18T12:53:41;98302.25;;;13.99;78.23
43488;BME280;29078;41.932;25.554;2022-11-18T12:58:36;98317.50;;;14.04;78.61
43488;BME280;29078;41.932;25.554;2022-11-18T13:01:11;98297.66;;;14.06;78.26
43488;BME280;29078;41.932;25.554;2022-11-18T13:03:36;98242.16;;;13.70;78.03
43488;BME280;29078;41.932;25.554;2022-11-18T13:06:25;98287.75;;;14.13;78.02
43488;BME280;29078;41.932;25.554;2022-11-18T13:11:53;98265.00;;;14.17;78.16
43488;BME280;29078;41.932;25.554;2022-11-18T13:14:22;98269.88;;;14.20;78.08
43488;BME280;29078;41.932;25.554;2022-11-18T13:22:56;98259.00;;;14.22;78.14
43488;BME280;29078;41.932;25.554;2022-11-18T13:25:42;98195.44;;;13.80;78.26
43488;BME280;29078;41.932;25.554;2022-11-18T13:33:39;98214.25;;;13.90;77.73
43488;BME280;29078;41.932;25.554;2022-11-18T13:36:19;98217.47;;;13.92;77.92
43488;BME280;29078;41.932;25.554;2022-11-18T13:39:04;98244.34;;;14.19;77.85
43488;BME280;29078;41.932;25.554;2022-11-18T13:41:33;98236.38;;;14.19;78.01
43488;BME280;29078;41.932;25.554;2022-11-18T13:44:17;98154.41;;;13.59;78.20
43488;BME280;29078;41.932;25.554;2022-11-18T13:46:45;98187.03;;;13.83;78.08
43488;BME280;29078;41.932;25.554;2022-11-18T13:49:18;98235.72;;;14.12;78.50
43488;BME280;29078;41.932;25.554;2022-11-18T13:51:46;98123.28;;;13.43;78.42
43488;BME280;29078;41.932;25.554;2022-11-18T13:54:18;98174.34;;;13.74;78.45
43488;BME280;29078;41.932;25.554;2022-11-18T13:56:44;98128.00;;;13.41;78.77
43488;BME280;29078;41.932;25.554;2022-11-18T13:59:19;98210.66;;;13.96;79.12
43488;BME280;29078;41.932;25.554;2022-11-18T14:01:53;98185.06;;;13.67;79.15
43488;BME280;29078;41.932;25.554;2022-11-18T14:04:21;98194.06;;;13.78;79.21
43488;BME280;29078;41.932;25.554;2022-11-18T14:06:48;98139.41;;;13.42;79.74
43488;BME280;29078;41.932;25.554;2022-11-18T14:09:21;98219.91;;;13.82;79.68
43488;BME280;29078;41.932;25.554;2022-11-18T14:12:03;98200.75;;;13.68;80.22
43488;BME280;29078;41.932;25.554;2022-11-18T14:14:38;98219.66;;;13.72;80.07
43488;BME280;29078;41.932;25.554;2022-11-18T14:17:20;98210.31;;;13.70;80.35
43488;BME280;29078;41.932;25.554;2022-11-18T14:19:48;98148.94;;;13.31;80.58
43488;BME280;29078;41.932;25.554;2022-11-18T14:24:41;98022.91;;;12.58;80.63
43488;BME280;29078;41.932;25.554;2022-11-18T14:27:39;98200.97;;;13.67;80.87
43488;BME280;29078;41.932;25.554;2022-11-18T14:33:14;98193.38;;;13.59;81.06
43488;BME280;29078;41.932;25.554;2022-11-18T14:35:48;98040.69;;;12.69;80.63
43488;BME280;29078;41.932;25.554;2022-11-18T14:38:17;98089.44;;;13.03;80.64
43488;BME280;29078;41.932;25.554;2022-11-18T14:40:43;98144.13;;;13.40;80.72
43488;BME280;29078;41.932;25.554;2022-11-18T14:43:11;97982.81;;;12.31;80.71
43488;BME280;29078;41.932;25.554;2022-11-18T14:45:38;98173.88;;;13.65;80.98
43488;BME280;29078;41.932;25.554;2022-11-18T14:48:05;98203.38;;;14.04;80.47
43488;BME280;29078;41.932;25.554;2022-11-18T14:50:31;98179.28;;;14.17;80.20
43488;BME280;29078;41.932;25.554;2022-11-18T14:52:57;98190.28;;;14.37;79.08
43488;BME280;29078;41.932;25.554;2022-11-18T14:55:22;98140.13;;;14.24;78.86
43488;BME280;29078;41.932;25.554;2022-11-18T14:57:48;98018.88;;;13.73;77.99
43488;BME280;29078;41.932;25.554;2022-11-18T15:00:14;98075.41;;;14.13;77.57
43488;BME280;29078;41.932;25.554;2022-11-18T15:02:40;98170.16;;;14.93;77.01
43488;BME280;29078;41.932;25.554;2022-11-18T15:05:06;98044.00;;;14.22;76.64
43488;BME280;29078;41.932;25.554;2022-11-18T15:07:32;98158.22;;;14.96;76.34
43488;BME280;29078;41.932;25.554;2022-11-18T15:09:58;98122.66;;;14.85;76.12
43488;BME280;29078;41.932;25.554;2022-11-18T15:12:23;98087.47;;;14.61;75.66
43488;BME280;29078;41.932;25.554;2022-11-18T15:14:48;98204.00;;;15.31;75.66